METAR

TAF

 




Curitiba / Bacacheri, PR - SBBI


21 de Abril de 2014 às 01:00 (UTC)


Tempo:

Céu parcialmente nublado

Temperatura:

17ºC

Umidade Relativa:

88%

Localização:
Ajuste do Altímetro:

1021 hPa

Visibilidade Horizontal Predominante:

> 10 Km

Direção e Velocidade do Vento:

140° 22,22 Km/h


Observação Meteorológica:

METAR SBBI 210100Z 14012KT 9999 SCT008 BKN010 17/15 Q1021=